Aviation Digital Data Service (ADDS)

Output produced by METARs form (2135 UTC 16 August 2017)
found at http://www.aviationweather.gov/adds/metars/
 
KLNS 162053Z 32006KT 10SM SCT075 28/19 A2999 RMK AO2 SLP153 T02830189
KLNS 161953Z 29009KT 10SM SCT049 BKN065 29/19 A2999 RMK AO2 SLP152 T02940194
KLNS 161853Z COR 30008KT 10SM SCT043 29/20 A3000 RMK AO2 SLP155 T02940200
KLNS 161753Z AUTO VRB06KT 10SM FEW033 29/21 A3001 RMK AO2 SLP158 6//// T02890211 58003
KLNS 161659Z 33005KT 7SM SCT025 BKN200 27/22 A3001
KLNS 161655Z COR 33005 7SM SCT025 BKN200 27/22 A3001
KLNS 161654Z 33005 7SM SCT025 BKN200 27/22 A3001
KLNS 161653Z AUTO VRB04KT 27/22 A3001 RMK AO2 SLP158 T02720222 PWINO $
KLNS 161600Z COR 30004KT 6SM BR SCT015 OVC018 25/21 A3002
KLNS 161559Z AUTO 30004KT 6SM BR SCT015 OVC018 25/21 A3002
KLNS 161553Z AUTO 30003KT A3002 RMK AO2 SLPNO PWINO PNO $
KLNS 161504Z AUTO 31006KT A3002 RMK AO2 PWINO PNO $
KLNS 161453Z 00000KT 6SM BR OVC011 24/22 A3002 RMK AO2 SLP162 T02440222 55002 $
KLNS 161414Z 00000KT 3SM BR BKN006 OVC011 22/22 A3001 RMK AO2 CIG 004V009 T02220222
KLNS 161353Z 29004KT 2 1/2SM BR OVC002 22/22 A3002 RMK AO2 CIG 002V006 SLP164 T02170217
KLNS 161351Z 28005KT 2SM BR OVC002 22/22 A3002 RMK AO2
KLNS 161338Z 31005KT 1 1/2SM BR OVC002 22/22 A3002 RMK AO2 T02170217
KLNS 161322Z 30005KT 1/2SM FG VV002 22/22 A3002 RMK AO2 T02170217
KLNS 161253Z 27003KT M1/4SM FG VV002 21/21 A3001 RMK AO2 SLP158 T02110211
KLNS 161153Z 28005KT M1/4SM FG VV002 20/20 A3000 RMK AO2 SLP157 70002 T02000200 10200 20194 52013
KLNS 161053Z 29004KT M1/4SM FG VV002 20/20 A2999 RMK AO2 SLP153 T02000200
KLNS 160953Z 00000KT 1/4SM FG VV002 20/20 A2997 RMK AO2 SLP148 T02000200
KLNS 160853Z AUTO 30004KT 1/4SM FG VV002 20/20 A2996 RMK AO2 SLP144 T02000200 53005
KLNS 160753Z AUTO 00000KT 1/4SM FG VV002 20/20 A2995 RMK AO2 SLP140 T02000200
KLNS 160653Z AUTO 00000KT M1/4SM FG VV002 20/20 A2994 RMK AO2 SLP137 T02000200
KLNS 160553Z AUTO 00000KT 1/4SM FG VV002 19/19 A2995 RMK AO2 SLP139 T01940194 10233 20183 50007
KLNS 160453Z AUTO 00000KT 1/4SM FG VV003 19/19 A2995 RMK AO2 SLP139 T01890189 402560183
KLNS 160446Z AUTO 08003KT 1/4SM FG VV004 18/18 A2995 RMK AO2 T01830183
KLNS 160353Z AUTO 00000KT 1/4SM FG VV009 20/20 A2994 RMK AO2 SLP136 T02000200
KLNS 160308Z AUTO 00000KT M1/4SM FG VV011 19/19 A2993 RMK AO2 T01940194
KLNS 160253Z 05003KT 1/2SM FG VV011 20/20 A2992 RMK AO2 SLP131 T02000200 50005
KLNS 160245Z 00000KT 1/4SM FG VV011 21/21 A2993 RMK AO2 T02060206
KLNS 160237Z 00000KT 1/2SM FG VV011 20/20 A2993 RMK AO2 T02000200
KLNS 160222Z 00000KT 1/4SM FG VV011 20/20 A2994 RMK AO2 T02000200
KLNS 160213Z 00000KT 3/4SM BR VV012 19/19 A2993 RMK AO2 T01940194
KLNS 160201Z 00000KT 1 1/4SM BR FEW013 21/21 A2993 RMK AO2 T02060206
KLNS 160153Z 15003KT 2SM BR CLR 20/20 A2993 RMK AO2 SLP134 T02000200
KLNS 160130Z 02003KT 2 1/2SM BR CLR 21/20 A2993 RMK AO2 T02060200
KLNS 160053Z 00000KT 4SM BR CLR 22/21 A2991 RMK AO2 SLP126 T02170211
KLNS 152353Z 00000KT 4SM BR CLR 23/22 A2991 RMK AO2 SLP126 T02330217 10256 20233 53002
KLNS 152253Z 13006KT 5SM BR FEW020 24/22 A2989 RMK AO2 SLP120 T02440222
KLNS 152243Z 12004KT 5SM BR FEW020 24/22 A2989 RMK AO2 T02440222
KLNS 152153Z 10003KT 4SM BR OVC019 24/22 A2990 RMK AO2 CIG 013V023 SLP124 T02440222
KLNS 152110Z 30003KT 5SM HZ OVC015 24/22 A2991 RMK AO2 T02440217
KLNS 152053Z 32004KT 4SM BR OVC011 24/22 A2990 RMK AO2 SLP124 T02440222 55005
KLNS 151953Z 32003KT 4SM BR OVC010 24/22 A2990 RMK AO2 SLP123 T02390222
KLNS 151853Z 31004KT 3SM BR OVC008 23/22 A2992 RMK AO2 SLP128 T02330222
KLNS 151753Z 00000KT 2 1/2SM BR OVC007 23/22 A2992 RMK AO2 SLP129 60002 T02280217 10233 20200 58004
KLNS 151653Z 00000KT 2 1/2SM BR OVC006 23/22 A2992 RMK AO2 SLP130 T02330217
KLNS 151553Z 00000KT 3SM BR OVC005 22/21 A2993 RMK AO2 LTG DSNT SE AND S SLP133 T02220211
KLNS 151453Z 00000KT 3SM BR OVC006 22/21 A2993 RMK AO2 SLP133 60002 T02170206 58000
KLNS 151353Z 00000KT 5SM BR OVC006 21/20 A2994 RMK AO2 RAE13 SLP135 P0001 T02060200
KLNS 151315Z 00000KT 5SM BR OVC007 21/19 A2994 RMK AO2 RAE13 P0001 T02060194
KLNS 151253Z 00000KT 3SM -RA BR OVC008 20/19 A2994 RMK AO2 RAB37 SLP135 P0001 T02000194
KLNS 151153Z 09003KT 6SM BR OVC009 20/19 A2993 RMK AO2 SLP133 60000 70014 T02000194 10200 20189 53002
KLNS 151118Z 08003KT 6SM BR OVC009 19/19 A2993 RMK AO2 T01940189
KLNS 151104Z 09003KT 5SM BR BKN010 OVC120 19/19 A2992 RMK AO2 T01940189
KLNS 151053Z 08003KT 5SM BR SCT010 SCT036 BKN120 19/19 A2993 RMK AO2 SLP131 T01940189
KLNS 150953Z 06003KT 5SM BR FEW017 FEW024 SCT075 19/19 A2992 RMK AO2 SLP130 T01890189